createdAt,value
2022-12-13T00:01:47.874Z,8.29
2022-12-13T00:04:16.391Z,8.09
2022-12-13T00:06:44.799Z,7.98
2022-12-13T00:09:15.040Z,7.77
2022-12-13T00:11:45.100Z,8.09
2022-12-13T00:14:14.778Z,8.55
2022-12-13T00:16:46.946Z,8.42
2022-12-13T00:19:15.750Z,8.26
2022-12-13T00:21:43.992Z,7.82
2022-12-13T00:24:12.325Z,8.06
2022-12-13T00:26:40.902Z,8.08
2022-12-13T00:29:12.161Z,8.27
2022-12-13T00:34:28.961Z,6.95
2022-12-13T00:36:59.377Z,6.92
2022-12-13T00:39:28.110Z,6.98
2022-12-13T00:41:56.573Z,7.24
2022-12-13T00:44:26.480Z,7.49
2022-12-13T00:46:54.810Z,7.26
2022-12-13T00:49:23.235Z,7.24
2022-12-13T00:51:51.391Z,7.24
2022-12-13T00:54:19.870Z,7.40
2022-12-13T00:56:48.171Z,7.30
2022-12-13T00:59:16.923Z,7.33
2022-12-13T01:01:46.765Z,7.48
2022-12-13T01:04:15.189Z,7.29
2022-12-13T01:06:45.778Z,7.04
2022-12-13T01:09:19.263Z,6.99
2022-12-13T01:11:48.071Z,7.17
2022-12-13T01:14:16.565Z,7.31
2022-12-13T01:16:46.305Z,7.44
2022-12-13T01:19:14.578Z,7.64
2022-12-13T01:21:42.861Z,7.20
2022-12-13T01:24:11.165Z,7.11
2022-12-13T01:26:39.395Z,7.07
2022-12-13T01:29:08.769Z,7.78
2022-12-13T01:31:41.588Z,7.76
2022-12-13T01:34:12.338Z,7.65
2022-12-13T01:36:41.955Z,7.12
2022-12-13T01:39:15.216Z,6.72
2022-12-13T01:41:45.287Z,7.45
2022-12-13T01:44:46.363Z,7.64
2022-12-13T01:47:17.961Z,7.65
2022-12-13T01:49:48.001Z,7.35
2022-12-13T01:52:18.227Z,7.83
2022-12-13T01:54:49.948Z,7.51
2022-12-13T01:57:22.726Z,7.41
2022-12-13T01:59:53.202Z,6.89
2022-12-13T02:02:21.892Z,7.30
2022-12-13T02:04:56.769Z,7.05
2022-12-13T02:07:29.400Z,6.93
2022-12-13T02:10:00.906Z,7.15
2022-12-13T02:12:31.245Z,7.10
2022-12-13T02:15:01.218Z,7.23
2022-12-13T02:17:43.907Z,7.06
2022-12-13T02:20:44.510Z,6.94
2022-12-13T02:23:35.171Z,6.14
2022-12-13T02:26:28.563Z,6.77
2022-12-13T02:29:12.393Z,6.98
2022-12-13T02:32:09.116Z,7.43
2022-12-13T02:34:41.487Z,6.91
2022-12-13T02:37:19.350Z,6.93
2022-12-13T02:39:53.096Z,6.59
2022-12-13T02:42:26.747Z,6.60
2022-12-13T02:44:59.026Z,5.76
2022-12-13T02:47:30.645Z,6.68
2022-12-13T02:50:03.122Z,6.99
2022-12-13T02:52:33.570Z,6.39
2022-12-13T02:55:07.374Z,7.06
2022-12-13T02:57:37.364Z,6.60
2022-12-13T03:00:08.907Z,6.35
2022-12-13T03:02:46.777Z,6.27
2022-12-13T03:05:43.659Z,6.89
2022-12-13T03:08:22.989Z,7.11
2022-12-13T03:11:03.041Z,7.01
2022-12-13T03:13:38.192Z,6.97
2022-12-13T03:16:13.177Z,6.84
2022-12-13T03:18:43.392Z,7.22
2022-12-13T03:21:13.516Z,7.24
2022-12-13T03:23:42.040Z,7.49
2022-12-13T03:26:12.511Z,7.26
2022-12-13T03:28:41.252Z,6.92
2022-12-13T03:31:10.229Z,7.22
2022-12-13T03:33:38.933Z,7.12
2022-12-13T03:36:10.819Z,7.45
2022-12-13T03:38:40.170Z,7.14
2022-12-13T03:41:13.406Z,7.18
2022-12-13T03:43:42.092Z,7.30
2022-12-13T03:46:11.231Z,7.70
2022-12-13T03:48:39.626Z,7.55
2022-12-13T03:51:09.288Z,7.52
2022-12-13T03:53:37.636Z,7.32
2022-12-13T03:56:07.812Z,7.00
2022-12-13T03:58:38.218Z,7.59
2022-12-13T04:01:08.439Z,7.59
2022-12-13T04:03:37.707Z,7.10
2022-12-13T04:06:06.489Z,7.31
2022-12-13T04:08:36.594Z,7.47
2022-12-13T04:11:25.883Z,7.21
2022-12-13T04:13:53.590Z,7.14
2022-12-13T04:16:22.448Z,7.31
2022-12-13T04:18:50.943Z,7.06
2022-12-13T04:21:19.135Z,7.10
2022-12-13T04:23:48.852Z,7.04
2022-12-13T04:26:17.188Z,7.00
2022-12-13T04:28:50.847Z,6.96
2022-12-13T04:31:22.594Z,6.79
2022-12-13T04:33:50.858Z,6.86
2022-12-13T04:36:32.097Z,7.00
2022-12-13T04:39:03.161Z,7.13
2022-12-13T04:41:36.203Z,6.98
2022-12-13T04:44:05.459Z,6.72
2022-12-13T04:46:33.922Z,6.52
2022-12-13T04:49:05.492Z,7.11
2022-12-13T04:51:33.875Z,7.17
2022-12-13T04:54:23.341Z,7.24
2022-12-13T04:56:51.845Z,6.89
2022-12-13T04:59:20.196Z,7.10
2022-12-13T05:01:48.451Z,7.06
2022-12-13T05:04:16.736Z,7.13
2022-12-13T05:06:44.932Z,6.77
2022-12-13T05:09:14.562Z,6.81
2022-12-13T05:11:45.955Z,7.34
2022-12-13T05:14:14.509Z,7.24
2022-12-13T05:16:51.721Z,7.24
2022-12-13T05:19:20.026Z,7.47
2022-12-13T05:21:49.205Z,6.50
2022-12-13T05:24:19.182Z,6.61
2022-12-13T05:26:47.510Z,6.79
2022-12-13T05:29:15.762Z,5.21
2022-12-13T05:31:44.132Z,6.26
2022-12-13T05:34:12.387Z,6.26
2022-12-13T05:36:40.675Z,5.88
2022-12-13T05:39:28.362Z,6.52
2022-12-13T05:42:01.477Z,6.40
2022-12-13T05:44:31.797Z,6.88
2022-12-13T05:47:01.969Z,7.01
2022-12-13T05:49:31.372Z,7.29
2022-12-13T05:51:59.747Z,7.02
2022-12-13T05:54:28.086Z,7.02
2022-12-13T05:56:59.005Z,7.01
2022-12-13T05:59:27.259Z,7.96
2022-12-13T06:01:55.581Z,8.19
2022-12-13T06:04:23.860Z,8.09
2022-12-13T06:06:53.062Z,7.46
2022-12-13T06:09:24.712Z,7.04
2022-12-13T06:12:01.125Z,6.80
2022-12-13T06:14:31.176Z,6.85
2022-12-13T06:16:59.450Z,6.90
2022-12-13T06:19:28.094Z,6.93
2022-12-13T06:21:57.080Z,6.84
2022-12-13T06:24:25.390Z,6.95
2022-12-13T06:26:53.644Z,7.00
2022-12-13T06:29:25.545Z,6.89
2022-12-13T06:32:01.170Z,6.65
2022-12-13T06:34:33.090Z,6.96
2022-12-13T06:37:02.462Z,6.96
2022-12-13T06:39:32.475Z,7.03
2022-12-13T06:42:08.689Z,7.38
2022-12-13T06:44:37.208Z,7.64
2022-12-13T06:47:12.156Z,7.46
2022-12-13T06:49:44.131Z,7.69
2022-12-13T06:52:14.745Z,7.83
2022-12-13T06:54:43.592Z,7.79
2022-12-13T06:57:12.203Z,7.70
2022-12-13T06:59:41.355Z,7.95
2022-12-13T07:02:25.276Z,7.78
2022-12-13T07:04:55.909Z,7.16
2022-12-13T07:07:26.042Z,7.56
2022-12-13T07:09:54.913Z,7.76
2022-12-13T07:12:23.583Z,8.32
2022-12-13T07:14:51.881Z,7.79
2022-12-13T07:17:33.255Z,8.33
2022-12-13T07:20:03.755Z,8.00
2022-12-13T07:22:34.591Z,7.46
2022-12-13T07:25:06.090Z,7.24
2022-12-13T07:27:34.776Z,7.28
2022-12-13T07:30:03.710Z,7.35
2022-12-13T07:32:33.358Z,7.48
2022-12-13T07:35:01.576Z,7.55
2022-12-13T07:37:31.175Z,7.31
2022-12-13T07:40:04.415Z,7.96
2022-12-13T07:42:33.246Z,8.15
2022-12-13T07:45:01.585Z,8.27
2022-12-13T07:47:32.625Z,8.28
2022-12-13T07:50:01.422Z,7.63
2022-12-13T07:52:29.950Z,8.22
2022-12-13T07:54:58.243Z,8.76
2022-12-13T07:57:26.540Z,9.03
2022-12-13T07:59:54.823Z,9.07
2022-12-13T08:02:23.072Z,8.87
2022-12-13T08:04:54.992Z,8.75
2022-12-13T08:07:23.796Z,8.55
2022-12-13T08:09:53.291Z,8.18
2022-12-13T08:12:22.797Z,7.82
2022-12-13T08:14:53.093Z,8.54
2022-12-13T08:17:22.079Z,9.05
2022-12-13T08:19:50.539Z,9.12
2022-12-13T08:22:24.201Z,9.28
2022-12-13T08:24:52.830Z,8.55
2022-12-13T08:27:22.189Z,9.58
2022-12-13T08:29:50.395Z,9.62
2022-12-13T08:32:18.712Z,9.77
2022-12-13T08:34:47.083Z,9.87
2022-12-13T08:37:15.532Z,9.76
2022-12-13T08:39:45.924Z,9.95
2022-12-13T08:42:18.941Z,10.37
2022-12-13T08:44:50.219Z,10.01
2022-12-13T08:47:23.479Z,10.43
2022-12-13T08:50:02.196Z,10.35
2022-12-13T08:52:31.894Z,10.37
2022-12-13T08:55:01.717Z,10.13
2022-12-13T08:57:29.902Z,9.77
2022-12-13T08:59:58.232Z,10.19
2022-12-13T09:02:26.489Z,9.92
2022-12-13T09:04:54.757Z,10.07
2022-12-13T09:07:23.079Z,9.58
2022-12-13T09:09:55.131Z,10.90
2022-12-13T09:12:30.561Z,10.17
2022-12-13T09:15:01.667Z,10.89
2022-12-13T09:17:36.364Z,9.04
2022-12-13T09:20:10.150Z,9.78
2022-12-13T09:23:01.541Z,9.85
2022-12-13T09:25:37.246Z,12.13
2022-12-13T09:28:09.629Z,13.32
2022-12-13T09:30:40.534Z,13.48
2022-12-13T09:33:18.127Z,13.24
2022-12-13T09:35:57.048Z,12.75
2022-12-13T09:38:25.260Z,13.28
2022-12-13T09:40:58.501Z,14.21
2022-12-13T09:43:42.624Z,14.33
2022-12-13T09:46:34.255Z,14.73
2022-12-13T09:49:04.847Z,14.47
2022-12-13T09:51:47.303Z,14.82
2022-12-13T09:54:21.937Z,14.64
2022-12-13T09:56:51.805Z,14.44
2022-12-13T09:59:28.309Z,14.19
2022-12-13T10:01:56.943Z,14.03
2022-12-13T10:04:25.251Z,13.72
2022-12-13T10:06:55.231Z,14.11
2022-12-13T10:09:24.223Z,14.52
2022-12-13T10:11:54.911Z,13.69
2022-12-13T10:14:31.587Z,13.85
2022-12-13T10:17:04.927Z,14.80
2022-12-13T10:19:36.811Z,15.51
2022-12-13T10:22:07.566Z,15.72
2022-12-13T10:24:51.100Z,14.70
2022-12-13T10:27:21.610Z,14.09
2022-12-13T10:30:03.934Z,14.46
2022-12-13T10:32:37.642Z,14.73
2022-12-13T10:35:21.835Z,14.95
2022-12-13T10:37:50.277Z,14.80
2022-12-13T10:40:33.391Z,15.91
2022-12-13T10:43:14.695Z,15.43
2022-12-13T10:45:45.621Z,15.79
2022-12-13T10:48:22.390Z,14.57
2022-12-13T10:51:02.784Z,14.14
2022-12-13T10:53:34.318Z,14.32
2022-12-13T10:56:03.956Z,13.51
2022-12-13T10:58:40.604Z,12.79
2022-12-13T11:01:24.068Z,13.08
2022-12-13T11:04:02.526Z,13.69
2022-12-13T11:06:43.483Z,14.09
2022-12-13T11:09:23.448Z,14.42
2022-12-13T11:11:58.276Z,15.41
2022-12-13T11:14:31.633Z,15.79
2022-12-13T11:17:08.783Z,16.28
2022-12-13T11:19:41.335Z,16.12
2022-12-13T11:22:11.971Z,17.62
2022-12-13T11:24:43.588Z,18.11
2022-12-13T11:27:38.479Z,19.05
2022-12-13T11:30:16.546Z,19.82
2022-12-13T11:33:04.447Z,19.30
2022-12-13T11:35:44.302Z,19.81
2022-12-13T11:38:27.861Z,20.39
2022-12-13T11:41:00.462Z,20.45
2022-12-13T11:43:35.415Z,20.38
2022-12-13T11:46:14.704Z,20.37
2022-12-13T11:48:48.500Z,20.85
2022-12-13T11:51:24.097Z,19.72
2022-12-13T11:53:59.271Z,20.39
2022-12-13T11:56:29.920Z,20.92
2022-12-13T11:59:16.199Z,20.61
2022-12-13T12:02:04.885Z,19.80
2022-12-13T12:04:41.135Z,20.05
2022-12-13T12:07:31.881Z,22.50
2022-12-13T12:10:12.249Z,20.51
2022-12-13T12:12:45.374Z,19.66
2022-12-13T12:15:16.991Z,19.78
2022-12-13T12:17:45.345Z,20.51
2022-12-13T12:20:23.285Z,20.69
2022-12-13T12:23:08.200Z,20.46
2022-12-13T12:25:46.801Z,20.03
2022-12-13T12:28:29.500Z,20.57
2022-12-13T12:31:10.725Z,19.99
2022-12-13T12:33:53.293Z,20.80
2022-12-13T12:36:39.983Z,20.52
2022-12-13T12:39:28.413Z,21.00
2022-12-13T12:42:12.712Z,21.31
2022-12-13T12:44:56.007Z,21.06
2022-12-13T12:48:42.660Z,20.45
2022-12-13T12:50:43.023Z,19.75
2022-12-13T12:53:30.466Z,18.71
2022-12-13T12:56:10.405Z,18.88
2022-12-13T12:58:45.198Z,19.89
2022-12-13T13:01:33.445Z,20.37
2022-12-13T13:04:09.128Z,20.82
2022-12-13T13:06:40.467Z,18.46
2022-12-13T13:09:13.048Z,18.34
2022-12-13T13:11:44.009Z,17.99
2022-12-13T13:14:33.580Z,17.74
2022-12-13T13:17:22.736Z,18.10
2022-12-13T13:20:01.591Z,17.73
2022-12-13T13:22:43.409Z,17.76
2022-12-13T13:25:31.327Z,17.28
2022-12-13T13:28:14.950Z,17.77
2022-12-13T13:31:03.419Z,17.96
2022-12-13T13:33:46.671Z,17.15
2022-12-13T13:36:47.879Z,16.30
2022-12-13T13:39:20.568Z,16.59
2022-12-13T13:42:09.084Z,16.33
2022-12-13T13:45:06.830Z,16.20
2022-12-13T13:47:43.232Z,15.66
2022-12-13T13:50:47.030Z,15.05
2022-12-13T13:53:45.258Z,15.44
2022-12-13T13:56:38.225Z,15.71
2022-12-13T13:59:45.094Z,15.85
2022-12-13T14:02:42.517Z,14.60
2022-12-13T14:05:49.096Z,15.20
2022-12-13T14:08:30.144Z,15.42
2022-12-13T14:11:27.991Z,15.18
2022-12-13T14:14:38.665Z,14.85
2022-12-13T14:17:48.841Z,12.63
2022-12-13T14:20:52.882Z,12.42
2022-12-13T14:23:38.401Z,12.99
2022-12-13T14:26:37.182Z,12.46
2022-12-13T14:29:13.170Z,12.21
2022-12-13T14:31:44.291Z,12.16
2022-12-13T14:34:22.378Z,12.74
2022-12-13T14:36:57.382Z,12.82
2022-12-13T14:39:29.646Z,12.53
2022-12-13T14:42:01.020Z,12.87
2022-12-13T14:44:31.460Z,11.64
2022-12-13T14:47:02.365Z,11.47
2022-12-13T14:49:33.984Z,10.99
2022-12-13T14:52:07.041Z,10.75
2022-12-13T14:54:46.272Z,10.44
2022-12-13T14:57:20.606Z,10.84
2022-12-13T14:59:52.728Z,11.51
2022-12-13T15:02:31.114Z,11.15
2022-12-13T15:05:09.068Z,11.05
2022-12-13T15:07:39.769Z,11.40
2022-12-13T15:10:22.388Z,10.16
2022-12-13T15:12:52.275Z,9.88
2022-12-13T15:15:26.933Z,9.79
2022-12-13T15:18:18.414Z,9.72
2022-12-13T15:20:50.062Z,9.56
2022-12-13T15:23:30.984Z,8.88
2022-12-13T15:26:03.564Z,8.70
2022-12-13T15:28:35.584Z,8.91
2022-12-13T15:31:06.261Z,8.10
2022-12-13T15:33:39.477Z,8.98
2022-12-13T15:36:16.980Z,8.43
2022-12-13T15:38:51.817Z,8.58
2022-12-13T15:41:24.059Z,8.91
2022-12-13T15:43:55.201Z,9.11
2022-12-13T15:46:28.269Z,9.37
2022-12-13T15:48:58.679Z,9.17
2022-12-13T15:51:28.886Z,8.21
2022-12-13T15:54:05.006Z,9.38
2022-12-13T15:56:38.088Z,8.99
2022-12-13T15:59:08.067Z,9.11
2022-12-13T16:01:38.057Z,8.89
2022-12-13T16:04:07.447Z,9.08
2022-12-13T16:06:36.599Z,7.25
2022-12-13T16:09:08.022Z,7.62
2022-12-13T16:11:50.360Z,7.19
2022-12-13T16:14:49.394Z,7.38
2022-12-13T16:17:24.723Z,7.53
2022-12-13T16:19:53.843Z,8.19
2022-12-13T16:22:24.219Z,8.32
2022-12-13T16:24:53.555Z,8.04
2022-12-13T16:27:23.589Z,7.97
2022-12-13T16:29:51.794Z,7.09
2022-12-13T16:32:20.246Z,7.59
2022-12-13T16:34:53.719Z,8.29
2022-12-13T16:37:28.473Z,8.36
2022-12-13T16:39:56.986Z,6.93
2022-12-13T16:42:27.526Z,8.05
2022-12-13T16:45:18.138Z,8.20
2022-12-13T16:47:49.744Z,7.99
2022-12-13T16:50:21.511Z,8.20
2022-12-13T16:52:49.959Z,8.28
2022-12-13T16:55:18.561Z,7.97
2022-12-13T16:57:58.209Z,8.02
2022-12-13T17:00:27.939Z,7.63
2022-12-13T17:02:58.058Z,8.19
2022-12-13T17:05:27.992Z,8.18
2022-12-13T17:07:57.752Z,8.04
2022-12-13T17:10:26.236Z,6.35
2022-12-13T17:12:55.165Z,7.64
2022-12-13T17:15:28.031Z,7.65
2022-12-13T17:17:56.498Z,7.82
2022-12-13T17:20:25.862Z,6.85
2022-12-13T17:22:57.773Z,7.77
2022-12-13T17:25:26.607Z,7.42
2022-12-13T17:27:55.008Z,7.68
2022-12-13T17:30:25.217Z,7.64
2022-12-13T17:32:53.485Z,6.81
2022-12-13T17:35:21.827Z,6.57
2022-12-13T17:37:51.212Z,6.83
2022-12-13T17:40:19.714Z,6.15
2022-12-13T17:42:50.991Z,7.15
2022-12-13T17:45:20.873Z,7.54
2022-12-13T17:47:50.979Z,7.78
2022-12-13T17:50:23.159Z,7.97
2022-12-13T17:52:51.344Z,7.71
2022-12-13T17:55:19.637Z,7.57
2022-12-13T17:57:48.164Z,7.34
2022-12-13T18:00:21.349Z,7.17
2022-12-13T18:02:55.830Z,7.59
2022-12-13T18:05:26.551Z,7.07
2022-12-13T18:07:54.953Z,7.06
2022-12-13T18:10:27.925Z,7.69
2022-12-13T18:12:58.959Z,7.95
2022-12-13T18:15:27.337Z,7.25
2022-12-13T18:18:11.098Z,7.61
2022-12-13T18:20:40.188Z,6.83
2022-12-13T18:23:08.917Z,7.74
2022-12-13T18:25:37.796Z,6.90
2022-12-13T18:28:06.995Z,7.48
2022-12-13T18:30:35.386Z,7.60
2022-12-13T18:33:05.502Z,7.20
2022-12-13T18:35:34.498Z,7.39
2022-12-13T18:38:02.840Z,7.40
2022-12-13T18:40:32.572Z,7.36
2022-12-13T18:43:00.903Z,7.78
2022-12-13T18:45:29.225Z,7.48
2022-12-13T18:47:58.583Z,8.29
2022-12-13T18:50:28.233Z,8.38
2022-12-13T18:52:56.511Z,7.87
2022-12-13T18:55:24.828Z,8.33
2022-12-13T18:57:53.264Z,7.64
2022-12-13T19:00:22.465Z,8.28
2022-12-13T19:02:50.807Z,8.66
2022-12-13T19:05:19.252Z,8.18
2022-12-13T19:07:48.910Z,8.53
2022-12-13T19:10:17.293Z,8.34
2022-12-13T19:12:45.775Z,7.24
2022-12-13T19:15:15.307Z,7.38
2022-12-13T19:17:43.647Z,7.67
2022-12-13T19:20:13.035Z,6.97
2022-12-13T19:22:41.397Z,8.18
2022-12-13T19:25:11.798Z,7.80
2022-12-13T19:27:40.235Z,8.12
2022-12-13T19:30:09.663Z,8.15
2022-12-13T19:32:42.607Z,7.63
2022-12-13T19:35:16.836Z,7.80
2022-12-13T19:37:48.395Z,7.91
2022-12-13T19:40:18.743Z,7.91
2022-12-13T19:42:47.450Z,7.79
2022-12-13T19:45:15.998Z,7.90
2022-12-13T19:47:44.885Z,6.80
2022-12-13T19:50:17.847Z,8.08
2022-12-13T19:52:47.071Z,8.13
2022-12-13T19:55:15.556Z,7.53
2022-12-13T19:57:45.483Z,7.74
2022-12-13T20:00:15.316Z,7.69
2022-12-13T20:02:43.925Z,7.59
2022-12-13T20:05:12.204Z,7.62
2022-12-13T20:07:40.932Z,7.32
2022-12-13T20:10:10.428Z,7.40
2022-12-13T20:12:41.092Z,6.82
2022-12-13T20:15:11.881Z,7.41
2022-12-13T20:17:41.511Z,7.59
2022-12-13T20:20:10.984Z,7.74
2022-12-13T20:22:39.559Z,7.34
2022-12-13T20:25:09.534Z,7.83
2022-12-13T20:27:38.053Z,7.83
2022-12-13T20:30:11.164Z,7.89
2022-12-13T20:32:39.687Z,8.04
2022-12-13T20:35:08.828Z,7.91
2022-12-13T20:37:40.328Z,7.67
2022-12-13T20:40:09.678Z,7.84
2022-12-13T20:42:39.033Z,7.95
2022-12-13T20:45:08.543Z,7.85
2022-12-13T20:47:38.718Z,6.87
2022-12-13T20:50:08.055Z,6.79
2022-12-13T20:52:36.667Z,7.62
2022-12-13T20:55:06.082Z,7.76
2022-12-13T20:57:34.411Z,5.86
2022-12-13T21:00:02.760Z,7.59
2022-12-13T21:02:31.154Z,7.40
2022-12-13T21:05:00.763Z,7.79
2022-12-13T21:07:42.881Z,7.54
2022-12-13T21:10:16.841Z,7.53
2022-12-13T21:12:45.347Z,6.97
2022-12-13T21:15:13.669Z,7.17
2022-12-13T21:17:42.671Z,7.64
2022-12-13T21:20:12.792Z,7.48
2022-12-13T21:22:41.175Z,7.35
2022-12-13T21:25:10.348Z,7.54
2022-12-13T21:27:38.632Z,7.40
2022-12-13T21:30:08.287Z,7.10
2022-12-13T21:32:37.863Z,7.15
2022-12-13T21:35:08.768Z,5.99
2022-12-13T21:37:38.427Z,6.50
2022-12-13T21:40:08.754Z,7.02
2022-12-13T21:42:37.030Z,7.29
2022-12-13T21:45:05.798Z,2.70
2022-12-13T21:47:34.155Z,7.27
2022-12-13T21:50:02.490Z,6.93
2022-12-13T21:52:30.685Z,6.87
2022-12-13T21:55:30.033Z,6.24
2022-12-13T21:58:07.918Z,5.89
2022-12-13T22:00:37.197Z,6.28
2022-12-13T22:03:05.823Z,6.38
2022-12-13T22:05:34.490Z,6.46
2022-12-13T22:08:02.792Z,7.16
2022-12-13T22:10:32.563Z,6.58
2022-12-13T22:13:00.824Z,6.36
2022-12-13T22:15:29.079Z,6.40
2022-12-13T22:17:58.095Z,7.04
2022-12-13T22:20:26.564Z,6.57
2022-12-13T22:22:54.881Z,7.19
2022-12-13T22:25:23.184Z,6.93
2022-12-13T22:27:53.657Z,6.95
2022-12-13T22:30:21.920Z,6.97
2022-12-13T22:32:50.164Z,7.30
2022-12-13T22:35:18.658Z,7.20
2022-12-13T22:37:50.095Z,7.04
2022-12-13T22:40:18.541Z,7.21
2022-12-13T22:42:48.296Z,7.45
2022-12-13T22:45:18.375Z,7.39
2022-12-13T22:47:46.704Z,6.53
2022-12-13T22:50:15.444Z,7.56
2022-12-13T22:52:43.652Z,6.61
2022-12-13T22:55:12.085Z,6.48
2022-12-13T22:57:40.432Z,6.35
2022-12-13T23:00:10.468Z,6.66
2022-12-13T23:02:40.343Z,6.97
2022-12-13T23:05:09.174Z,7.04
2022-12-13T23:07:37.455Z,5.80
2022-12-13T23:10:27.432Z,7.31
2022-12-13T23:13:03.693Z,7.30
2022-12-13T23:15:32.485Z,7.56
2022-12-13T23:18:02.208Z,7.44
2022-12-13T23:20:30.495Z,7.09
2022-12-13T23:22:59.613Z,5.64
2022-12-13T23:25:27.844Z,6.69
2022-12-13T23:27:56.170Z,6.76
2022-12-13T23:30:24.471Z,6.28
2022-12-13T23:32:52.714Z,6.59
2022-12-13T23:35:22.399Z,6.96
2022-12-13T23:37:50.760Z,6.66
2022-12-13T23:40:19.144Z,7.37
2022-12-13T23:42:48.085Z,7.29
2022-12-13T23:45:18.651Z,7.56
2022-12-13T23:47:46.840Z,7.42
2022-12-13T23:50:17.693Z,7.38
2022-12-13T23:52:47.354Z,7.41
2022-12-13T23:55:15.767Z,6.81
2022-12-13T23:57:44.093Z,7.76
